Time;durP1;ratioP1;P1;durP2;ratioP2;P2;SDS_P1;SDS_P2;PMS_P1;PMS_P2;Temp;Humidity;BMP_temperature;BMP_pressure;BME280_temperature;BME280_humidity;BME280_pressure;Samples;Min_cycle;Max_cycle;Signal;HPM_P1;HPM_P2
2021/04/12 00:00:30;;;;;;;12.48;4.88;;;4.30;99.90;;;;;;5060202;28;20361;-68
2021/04/12 00:03:18;;;;;;;9.00;4.00;;;4.30;99.90;;;;;;5067345;28;20028;-69
2021/04/12 00:05:59;;;;;;;10.77;4.75;;;4.30;99.90;;;;;;5067623;28;20028;-69
2021/04/12 00:08:38;;;;;;;9.30;5.03;;;4.30;99.90;;;;;;5069460;28;20029;-69
2021/04/12 00:11:31;;;;;;;14.02;6.05;;;4.30;99.90;;;;;;5065679;28;20020;-69
2021/04/12 00:14:15;;;;;;;13.98;5.40;;;4.30;99.90;;;;;;5070406;28;20039;-68
2021/04/12 00:17:05;;;;;;;10.32;5.90;;;4.20;99.90;;;;;;5071403;28;20083;-68
2021/04/12 00:19:58;;;;;;;10.40;5.45;;;4.20;99.90;;;;;;5070526;28;20039;-68
2021/04/12 00:22:30;;;;;;;9.32;4.90;;;4.10;99.90;;;;;;5066149;28;20021;-68
2021/04/12 00:25:20;;;;;;;9.50;5.00;;;4.10;99.90;;;;;;5054425;28;20089;-68
2021/04/12 00:27:58;;;;;;;9.93;5.13;;;4.10;99.90;;;;;;5066874;28;20059;-68
2021/04/12 00:30:24;;;;;;;8.00;4.70;;;4.00;99.90;;;;;;5063457;28;20021;-68
2021/04/12 00:32:59;;;;;;;9.57;4.95;;;4.00;99.90;;;;;;5068199;28;20031;-68
2021/04/12 00:35:33;;;;;;;9.63;4.90;;;4.00;99.90;;;;;;5064740;28;20021;-68
2021/04/12 00:38:14;;;;;;;10.35;4.90;;;3.90;99.90;;;;;;5068301;28;20147;-68
2021/04/12 00:41:18;;;;;;;9.15;4.68;;;3.90;99.90;;;;;;5066448;28;20026;-68
2021/04/12 00:44:08;;;;;;;8.27;4.85;;;3.90;99.90;;;;;;5065874;28;20040;-67
2021/04/12 00:46:53;;;;;;;5.75;4.75;;;3.90;99.90;;;;;;5069127;28;20123;-68
2021/04/12 00:49:57;;;;;;;9.32;4.30;;;3.90;99.90;;;;;;5069307;28;20388;-68
2021/04/12 00:52:34;;;;;;;6.70;4.30;;;3.90;99.90;;;;;;5057655;28;20433;-68
2021/04/12 00:55:27;;;;;;;7.75;4.88;;;3.80;99.90;;;;;;5065685;28;20036;-68
2021/04/12 00:57:58;;;;;;;6.53;4.32;;;3.80;99.90;;;;;;5068852;28;20103;-68
2021/04/12 01:00:38;;;;;;;8.80;4.70;;;3.80;99.90;;;;;;5062735;28;20025;-68
2021/04/12 01:03:30;;;;;;;9.93;4.78;;;3.80;99.90;;;;;;5061416;28;20381;-68
2021/04/12 01:06:14;;;;;;;8.20;4.63;;;3.80;99.90;;;;;;5066807;28;20111;-68
2021/04/12 01:09:09;;;;;;;6.18;4.35;;;3.80;99.90;;;;;;5064160;28;20037;-68
2021/04/12 01:11:43;;;;;;;12.07;5.53;;;3.80;99.90;;;;;;5064332;28;20017;-68
2021/04/12 01:14:27;;;;;;;10.88;5.35;;;3.80;99.90;;;;;;5064325;28;20060;-68
2021/04/12 01:17:18;;;;;;;8.73;4.95;;;3.80;99.90;;;;;;5062748;28;20032;-68
2021/04/12 01:19:50;;;;;;;15.63;5.82;;;3.80;99.90;;;;;;5069091;28;20021;-68
2021/04/12 01:22:21;;;;;;;11.10;5.43;;;3.80;99.90;;;;;;5066226;28;20044;-68
2021/04/12 01:25:19;;;;;;;11.00;5.68;;;3.80;99.90;;;;;;5062413;28;20024;-68
2021/04/12 01:28:36;;;;;;;8.93;5.20;;;3.80;99.90;;;;;;5069188;28;20057;-68
2021/04/12 01:31:20;;;;;;;15.50;5.40;;;3.80;99.90;;;;;;5068042;28;20064;-67
2021/04/12 01:34:30;;;;;;;11.88;5.88;;;3.80;99.90;;;;;;5063365;28;20017;-67
2021/04/12 01:37:24;;;;;;;9.80;5.95;;;3.80;99.90;;;;;;5069130;28;20032;-68
2021/04/12 01:40:13;;;;;;;16.38;7.20;;;3.80;99.90;;;;;;5065753;28;20040;-67
2021/04/12 01:42:50;;;;;;;9.82;6.03;;;3.80;99.90;;;;;;5066488;28;20032;-68
2021/04/12 01:45:35;;;;;;;10.35;5.72;;;3.80;99.90;;;;;;5063702;28;20473;-68
2021/04/12 01:48:39;;;;;;;14.05;5.85;;;3.80;99.90;;;;;;5069747;28;20048;-67
2021/04/12 01:51:16;;;;;;;9.73;6.28;;;3.80;99.90;;;;;;5066441;28;20066;-67
2021/04/12 01:54:03;;;;;;;10.77;6.18;;;3.80;99.90;;;;;;5067213;28;20036;-68
2021/04/12 01:56:40;;;;;;;11.35;5.95;;;3.70;99.90;;;;;;5063810;28;20036;-67
2021/04/12 01:59:24;;;;;;;14.27;6.22;;;3.70;99.90;;;;;;5063404;28;20108;-67
2021/04/12 02:02:09;;;;;;;23.02;7.78;;;3.70;99.90;;;;;;5066578;28;20024;-68
2021/04/12 02:04:57;;;;;;;12.55;6.82;;;3.70;99.90;;;;;;5063689;28;20469;-67
2021/04/12 02:07:43;;;;;;;15.98;6.07;;;3.70;99.90;;;;;;5073592;28;20084;-67
2021/04/12 02:10:21;;;;;;;16.77;6.00;;;3.70;99.90;;;;;;5064093;28;20024;-67
2021/04/12 02:12:55;;;;;;;12.20;6.10;;;3.60;99.90;;;;;;5060120;28;20021;-67
2021/04/12 02:15:35;;;;;;;9.82;6.10;;;3.70;99.90;;;;;;5065899;28;20108;-67
2021/04/12 02:18:18;;;;;;;12.88;6.90;;;3.70;99.90;;;;;;5064762;28;20495;-67
2021/04/12 02:20:58;;;;;;;13.68;6.75;;;3.60;99.90;;;;;;5063037;28;20592;-67
2021/04/12 02:23:34;;;;;;;12.18;6.78;;;3.50;99.90;;;;;;5070273;28;20035;-67
2021/04/12 02:26:15;;;;;;;10.05;6.88;;;3.50;99.90;;;;;;5070754;28;20020;-67
2021/04/12 02:29:09;;;;;;;12.20;7.00;;;3.50;99.90;;;;;;5069465;28;20044;-67
2021/04/12 02:32:03;;;;;;;11.00;6.53;;;3.60;99.90;;;;;;5072317;28;20051;-67
2021/04/12 02:34:35;;;;;;;10.82;6.90;;;3.50;99.90;;;;;;5065626;28;20021;-67
2021/04/12 02:37:19;;;;;;;12.00;6.97;;;3.60;99.90;;;;;;5073010;28;20025;-67
2021/04/12 02:40:02;;;;;;;15.90;7.47;;;3.60;99.90;;;;;;5069280;28;20020;-67
2021/04/12 02:42:33;;;;;;;9.55;7.10;;;3.60;99.90;;;;;;5068166;28;20039;-67
2021/04/12 02:45:08;;;;;;;9.55;7.05;;;3.50;99.90;;;;;;5067918;28;20035;-67
2021/04/12 02:47:48;;;;;;;11.40;6.85;;;3.50;99.90;;;;;;5060723;28;20040;-67
2021/04/12 02:50:26;;;;;;;8.52;6.78;;;3.50;99.90;;;;;;5065335;28;20496;-67
2021/04/12 02:53:01;;;;;;;11.93;6.93;;;3.50;99.90;;;;;;5083870;28;21182;-67
2021/04/12 02:56:05;;;;;;;14.82;6.80;;;3.50;99.90;;;;;;5067968;28;20493;-67
2021/04/12 02:58:58;;;;;;;13.68;6.53;;;3.50;99.90;;;;;;5067550;28;20437;-67
2021/04/12 03:01:49;;;;;;;14.63;6.70;;;3.40;99.90;;;;;;5066049;28;20032;-67
2021/04/12 03:04:23;;;;;;;11.90;6.60;;;3.50;99.90;;;;;;5062875;28;20106;-67
2021/04/12 03:07:10;;;;;;;12.50;6.55;;;3.50;99.90;;;;;;5064930;28;20431;-67
2021/04/12 03:10:02;;;;;;;11.20;7.03;;;3.50;99.90;;;;;;5069198;28;20032;-67
2021/04/12 03:12:46;;;;;;;8.90;6.20;;;3.50;99.90;;;;;;5063352;28;20568;-67
2021/04/12 03:15:50;;;;;;;13.13;7.35;;;3.40;99.90;;;;;;5070343;28;20025;-67
2021/04/12 03:18:34;;;;;;;;;;;3.40;99.90;;;;;;5063497;28;20032;-67
2021/04/12 03:21:31;;;;;;;14.63;6.82;;;3.40;99.90;;;;;;5063532;28;19914;-67
2021/04/12 03:24:12;;;;;;;11.00;7.07;;;3.40;99.90;;;;;;5067980;28;20025;-67
2021/04/12 03:27:17;;;;;;;13.02;7.93;;;3.40;99.90;;;;;;5059316;28;20037;-67
2021/04/12 03:30:01;;;;;;;14.77;7.68;;;3.40;99.90;;;;;;5068718;28;20039;-67
2021/04/12 03:32:46;;;;;;;11.57;7.30;;;3.40;99.90;;;;;;5067280;28;20066;-68
2021/04/12 03:35:31;;;;;;;11.35;6.57;;;3.40;99.90;;;;;;5066426;28;20171;-68
2021/04/12 03:38:15;;;;;;;14.35;7.10;;;3.40;99.90;;;;;;5066024;28;20024;-67
2021/04/12 03:40:52;;;;;;;15.60;7.80;;;3.40;99.90;;;;;;5068173;28;20033;-67
2021/04/12 03:43:36;;;;;;;13.63;7.50;;;3.40;99.90;;;;;;5064624;28;20471;-67
2021/04/12 03:46:20;;;;;;;12.52;8.32;;;3.40;99.90;;;;;;5068094;28;20392;-68
2021/04/12 03:48:45;;;;;;;15.10;8.00;;;3.50;99.90;;;;;;5062088;28;20114;-67
2021/04/12 03:51:14;;;;;;;11.93;7.60;;;3.50;99.90;;;;;;5069738;28;20078;-67
2021/04/12 03:53:58;;;;;;;14.65;8.02;;;3.50;99.90;;;;;;5064505;28;20033;-67
2021/04/12 03:56:48;;;;;;;16.35;8.73;;;3.50;99.90;;;;;;5065151;28;20683;-67
2021/04/12 03:59:35;;;;;;;19.55;8.18;;;3.60;99.90;;;;;;5072145;28;20064;-67
2021/04/12 04:02:35;;;;;;;15.10;8.85;;;3.60;99.90;;;;;;5064220;28;20493;-67
2021/04/12 04:05:25;;;;;;;13.95;8.80;;;3.70;99.90;;;;;;5068081;28;20064;-67
2021/04/12 04:08:18;;;;;;;14.32;8.43;;;3.60;99.90;;;;;;5061870;28;20059;-68
2021/04/12 04:11:02;;;;;;;;;;;3.70;99.90;;;;;;5060569;28;20100;-67
2021/04/12 04:14:00;;;;;;;16.50;9.75;;;3.80;99.90;;;;;;5068908;28;19908;-67
2021/04/12 04:16:47;;;;;;;15.80;10.02;;;3.80;99.90;;;;;;5068114;28;20059;-67
2021/04/12 04:19:40;;;;;;;16.05;9.70;;;3.80;99.90;;;;;;5065923;28;20108;-67
2021/04/12 04:22:29;;;;;;;15.90;9.35;;;3.80;99.90;;;;;;5067640;28;20035;-67
2021/04/12 04:25:16;;;;;;;14.85;9.80;;;3.80;99.90;;;;;;5066745;28;20020;-67
2021/04/12 04:28:03;;;;;;;14.20;8.48;;;3.90;99.90;;;;;;5068092;28;20044;-67
2021/04/12 04:30:43;;;;;;;18.27;9.77;;;3.90;99.90;;;;;;5063005;28;20040;-67
2021/04/12 04:33:40;;;;;;;19.70;9.75;;;3.80;99.90;;;;;;5068390;28;20040;-67
2021/04/12 04:36:31;;;;;;;16.30;9.65;;;3.80;99.90;;;;;;5063396;28;20040;-67
2021/04/12 04:39:06;;;;;;;12.98;7.63;;;3.80;99.90;;;;;;5068820;28;20028;-67
2021/04/12 04:41:40;;;;;;;14.00;8.73;;;3.80;99.90;;;;;;5066705;28;20028;-67
2021/04/12 04:44:17;;;;;;;15.75;9.18;;;3.80;99.90;;;;;;5068412;28;20025;-67
2021/04/12 04:46:58;;;;;;;16.30;11.70;;;3.80;99.90;;;;;;5065069;28;20476;-67
2021/04/12 04:49:38;;;;;;;15.00;9.95;;;3.90;99.90;;;;;;5070364;28;20043;-67
2021/04/12 04:52:20;;;;;;;17.35;11.20;;;3.90;99.90;;;;;;5073402;28;20381;-67
2021/04/12 04:55:08;;;;;;;21.73;13.05;;;4.00;99.90;;;;;;5069860;28;20032;-68
2021/04/12 04:58:21;;;;;;;21.42;13.02;;;4.00;99.90;;;;;;5064369;28;20025;-67
2021/04/12 05:01:13;;;;;;;;;;;4.00;99.90;;;;;;5064676;28;20028;-67
2021/04/12 05:03:58;;;;;;;23.55;11.68;;;4.10;99.90;;;;;;5067769;28;20262;-68
2021/04/12 05:06:50;;;;;;;20.15;11.05;;;4.10;99.90;;;;;;5074012;28;20469;-67
2021/04/12 05:09:29;;;;;;;18.92;12.23;;;4.10;99.90;;;;;;5060798;28;20041;-67
2021/04/12 05:12:19;;;;;;;17.15;11.07;;;4.00;99.90;;;;;;5071836;28;20424;-67
2021/04/12 05:15:12;;;;;;;15.93;10.88;;;4.00;99.90;;;;;;5060251;28;20025;-67
2021/04/12 05:17:37;;;;;;;;;;;4.00;99.90;;;;;;5070650;28;20029;-67
2021/04/12 05:20:41;;;;;;;15.63;10.65;;;4.10;99.90;;;;;;5070421;28;19910;-68
2021/04/12 05:23:28;;;;;;;17.58;10.98;;;4.10;99.90;;;;;;5075849;28;20412;-68
2021/04/12 05:26:28;;;;;;;19.02;11.75;;;4.10;99.90;;;;;;5071991;28;20081;-67
2021/04/12 05:29:38;;;;;;;22.10;13.07;;;4.10;99.90;;;;;;5070339;28;20492;-67
2021/04/12 05:32:22;;;;;;;19.17;11.60;;;4.00;99.90;;;;;;5067653;28;20055;-68
2021/04/12 05:35:26;;;;;;;21.08;10.80;;;4.20;99.90;;;;;;5054640;28;20039;-68
2021/04/12 05:38:21;;;;;;;14.27;10.07;;;4.20;99.90;;;;;;5058965;28;20036;-68
2021/04/12 05:40:54;;;;;;;18.10;11.32;;;4.20;99.90;;;;;;5067874;28;20469;-69
2021/04/12 05:43:38;;;;;;;15.73;9.20;;;4.20;99.90;;;;;;5065932;28;20040;-68
2021/04/12 05:46:14;;;;;;;16.50;10.80;;;4.30;99.90;;;;;;5067771;28;20177;-68
2021/04/12 05:48:52;;;;;;;17.45;10.10;;;4.30;99.90;;;;;;5070493;28;20032;-70
2021/04/12 05:52:01;;;;;;;18.42;11.48;;;4.30;99.90;;;;;;5065940;28;20028;-67
2021/04/12 05:54:41;;;;;;;15.38;11.57;;;4.30;99.90;;;;;;5068827;28;20123;-68
2021/04/12 05:57:48;;;;;;;21.35;12.30;;;4.40;99.90;;;;;;5054734;28;20078;-69
2021/04/12 06:00:49;;;;;;;19.33;12.90;;;4.50;99.90;;;;;;5066621;28;20051;-69
2021/04/12 06:03:30;;;;;;;22.55;11.82;;;4.50;99.90;;;;;;5070269;28;20031;-69
2021/04/12 06:06:20;;;;;;;17.70;12.18;;;4.50;99.90;;;;;;5075178;28;20028;-70
2021/04/12 06:09:07;;;;;;;19.70;11.23;;;4.60;99.90;;;;;;5074067;28;20032;-68
2021/04/12 06:12:08;;;;;;;16.33;11.20;;;4.50;99.90;;;;;;5076172;28;20049;-70
2021/04/12 06:15:14;;;;;;;18.52;11.35;;;4.50;99.90;;;;;;5071448;28;20032;-70
2021/04/12 06:18:14;;;;;;;14.90;10.10;;;4.50;99.90;;;;;;5075057;28;20035;-69
2021/04/12 06:21:00;;;;;;;17.48;11.07;;;4.60;99.90;;;;;;5061299;28;20086;-69
2021/04/12 06:23:50;;;;;;;14.50;10.15;;;4.60;99.90;;;;;;5063504;28;20032;-69
2021/04/12 06:26:28;;;;;;;14.13;9.63;;;4.60;99.90;;;;;;5074585;28;20119;-70
2021/04/12 06:29:34;;;;;;;22.30;10.38;;;4.60;99.90;;;;;;5073561;28;20676;-68
2021/04/12 06:32:15;;;;;;;13.95;9.90;;;4.60;99.90;;;;;;5063308;28;20029;-69
2021/04/12 06:35:18;;;;;;;17.15;11.18;;;4.60;99.90;;;;;;5074917;28;20028;-69
2021/04/12 06:38:21;;;;;;;13.88;9.82;;;4.70;99.90;;;;;;5071459;28;20032;-69
2021/04/12 06:41:17;;;;;;;14.55;9.10;;;4.70;99.90;;;;;;5073565;28;20073;-68
2021/04/12 06:43:49;;;;;;;17.45;9.85;;;4.80;99.90;;;;;;5065269;28;20031;-69
2021/04/12 06:46:42;;;;;;;14.63;8.80;;;4.80;99.90;;;;;;5077452;28;20016;-69
2021/04/12 06:49:32;;;;;;;10.95;8.57;;;4.90;99.90;;;;;;5068957;28;20077;-69
2021/04/12 06:52:37;;;;;;;12.82;8.82;;;4.90;99.90;;;;;;5069102;28;20500;-69
2021/04/12 06:55:18;;;;;;;10.63;8.65;;;4.90;99.90;;;;;;5073835;28;20049;-69
2021/04/12 06:58:34;;;;;;;13.55;8.85;;;4.80;99.90;;;;;;5073092;28;20016;-70
2021/04/12 07:01:03;;;;;;;16.85;9.88;;;4.90;99.90;;;;;;5065540;28;20060;-69
2021/04/12 07:03:56;;;;;;;15.20;10.30;;;4.90;99.90;;;;;;5068054;28;20031;-69
2021/04/12 07:06:41;;;;;;;12.70;8.10;;;4.90;99.90;;;;;;5069520;28;20426;-69
2021/04/12 07:09:43;;;;;;;13.23;7.85;;;4.90;99.90;;;;;;5063922;28;20033;-70
2021/04/12 07:12:36;;;;;;;13.23;6.55;;;4.90;99.90;;;;;;5073711;28;20028;-70
2021/04/12 07:15:23;;;;;;;8.70;6.22;;;5.10;99.90;;;;;;5073285;28;20032;-69
2021/04/12 07:18:30;;;;;;;13.48;7.45;;;5.30;99.90;;;;;;5073356;28;20031;-69
2021/04/12 07:21:15;;;;;;;9.80;6.43;;;5.30;99.90;;;;;;5069630;28;20036;-70
2021/04/12 07:23:49;;;;;;;12.07;6.72;;;5.30;99.90;;;;;;5073350;28;20523;-70
2021/04/12 07:26:36;;;;;;;9.93;6.20;;;5.40;99.90;;;;;;5072070;28;20495;-69
2021/04/12 07:29:20;;;;;;;12.75;6.28;;;5.70;99.90;;;;;;5066385;28;20032;-70
2021/04/12 07:31:51;;;;;;;10.65;6.55;;;5.90;99.90;;;;;;5074565;28;20495;-70
2021/04/12 07:34:48;;;;;;;9.73;7.25;;;6.00;99.90;;;;;;5067850;28;20078;-69
2021/04/12 07:37:35;;;;;;;11.48;5.57;;;6.10;99.90;;;;;;5073362;28;20025;-72
2021/04/12 07:40:24;;;;;;;8.43;3.08;;;6.10;99.90;;;;;;5071535;28;20033;-69
2021/04/12 07:43:08;;;;;;;4.53;2.63;;;6.00;99.90;;;;;;5062630;28;20079;-68
2021/04/12 07:45:58;;;;;;;5.00;2.13;;;6.20;99.90;;;;;;5072632;28;20026;-69
2021/04/12 07:48:32;;;;;;;1.73;0.68;;;6.00;99.90;;;;;;5067272;28;20435;-70
2021/04/12 07:51:01;;;;;;;0.98;0.45;;;5.90;99.90;;;;;;5069175;28;20058;-69
2021/04/12 07:53:38;;;;;;;0.70;0.60;;;5.80;99.90;;;;;;5065085;28;20036;-69
2021/04/12 07:56:25;;;;;;;2.03;0.60;;;5.70;99.90;;;;;;5065976;28;20060;-69
2021/04/12 07:59:23;;;;;;;3.25;0.82;;;5.80;99.90;;;;;;5072202;28;20035;-68
2021/04/12 08:02:16;;;;;;;0.60;0.60;;;5.90;99.90;;;;;;5064171;28;20051;-68
2021/04/12 08:05:09;;;;;;;1.15;0.70;;;6.00;99.90;;;;;;5055147;28;20033;-69
2021/04/12 08:08:11;;;;;;;2.15;0.60;;;6.40;99.90;;;;;;5058924;28;20040;-68
2021/04/12 08:11:14;;;;;;;3.65;1.30;;;6.70;99.90;;;;;;5067619;28;20032;-68
2021/04/12 08:14:13;;;;;;;1.95;0.73;;;6.80;99.90;;;;;;5066450;28;20032;-68
2021/04/12 08:17:12;;;;;;;4.15;0.90;;;6.90;99.90;;;;;;5062323;28;20441;-68
2021/04/12 08:19:49;;;;;;;3.17;0.80;;;6.90;99.90;;;;;;5057488;28;20035;-69
2021/04/12 08:22:33;;;;;;;5.43;1.00;;;7.00;99.90;;;;;;5075139;28;20095;-68
2021/04/12 08:25:53;;;;;;;4.15;1.08;;;7.10;99.90;;;;;;5061857;28;20068;-68
2021/04/12 08:28:33;;;;;;;0.98;0.73;;;7.10;99.90;;;;;;5065562;28;20072;-69
2021/04/12 08:31:28;;;;;;;5.10;1.10;;;7.20;99.90;;;;;;5065043;28;20043;-68
2021/04/12 08:34:30;;;;;;;2.55;1.10;;;7.20;99.90;;;;;;5062976;28;20527;-68
2021/04/12 08:37:36;;;;;;;5.00;1.30;;;7.50;99.90;;;;;;5085759;28;20060;-68
2021/04/12 08:40:19;;;;;;;5.38;1.60;;;7.50;99.90;;;;;;5068129;28;20071;-68
2021/04/12 08:42:57;;;;;;;2.90;1.70;;;7.60;99.90;;;;;;5067786;28;20109;-68
2021/04/12 08:45:53;;;;;;;8.35;1.85;;;7.60;99.90;;;;;;5065896;28;20020;-68
2021/04/12 08:48:40;;;;;;;3.92;2.00;;;7.70;99.90;;;;;;5065637;28;20115;-68
2021/04/12 08:51:42;;;;;;;6.40;2.15;;;7.80;99.90;;;;;;5062300;28;20070;-68
2021/04/12 08:54:24;;;;;;;4.60;2.00;;;8.00;99.90;;;;;;5071704;28;20040;-68
2021/04/12 08:57:36;;;;;;;8.95;2.60;;;7.80;99.90;;;;;;5069102;28;20032;-69
2021/04/12 09:00:33;;;;;;;4.57;2.17;;;7.60;99.90;;;;;;5069741;28;20032;-68
2021/04/12 09:03:47;;;;;;;5.43;1.80;;;7.60;99.90;;;;;;5062540;28;20087;-68
2021/04/12 09:06:43;;;;;;;4.50;2.63;;;7.80;99.90;;;;;;5070914;28;20035;-68
2021/04/12 09:09:35;;;;;;;4.03;1.88;;;8.00;99.90;;;;;;5071612;28;20043;-69
2021/04/12 09:12:32;;;;;;;6.20;1.77;;;8.30;99.90;;;;;;5067555;28;20036;-68
2021/04/12 09:15:28;;;;;;;4.93;1.70;;;8.30;99.90;;;;;;5072664;28;20029;-68
2021/04/12 09:18:41;;;;;;;5.30;2.70;;;8.60;99.90;;;;;;5074417;28;20026;-68
2021/04/12 09:21:27;;;;;;;3.28;1.80;;;8.60;99.90;;;;;;5070004;28;20025;-68
2021/04/12 09:24:30;;;;;;;3.63;1.80;;;8.90;99.90;;;;;;5068984;28;20110;-69
2021/04/12 09:27:16;;;;;;;2.97;2.10;;;8.90;99.90;;;;;;5076390;28;20089;-69
2021/04/12 09:29:51;;;;;;;4.55;2.42;;;9.00;99.90;;;;;;5067114;28;20384;-67
2021/04/12 09:32:29;;;;;;;3.05;2.10;;;9.20;99.90;;;;;;5070296;28;20083;-68
2021/04/12 09:35:23;;;;;;;7.03;2.20;;;9.40;99.90;;;;;;5073422;28;21030;-68
2021/04/12 09:38:25;;;;;;;3.28;2.38;;;9.40;99.90;;;;;;5068691;28;20020;-68
2021/04/12 09:41:39;;;;;;;4.00;2.42;;;9.30;99.90;;;;;;5070867;28;20031;-68
2021/04/12 09:44:20;;;;;;;7.45;3.10;;;9.20;99.90;;;;;;5071574;28;20040;-68
2021/04/12 09:47:23;;;;;;;6.47;3.08;;;9.40;99.90;;;;;;5067411;28;20017;-68
2021/04/12 09:50:26;;;;;;;3.92;2.63;;;9.20;99.90;;;;;;5070489;28;20032;-68
2021/04/12 09:53:20;;;;;;;4.68;3.00;;;9.00;99.90;;;;;;5078537;28;20036;-68
2021/04/12 09:56:04;;;;;;;6.75;2.67;;;9.00;99.90;;;;;;5077784;28;20033;-68
2021/04/12 09:58:51;;;;;;;5.15;3.40;;;9.40;99.90;;;;;;5066769;28;20537;-68
2021/04/12 10:01:39;;;;;;;10.23;2.80;;;9.70;99.90;;;;;;5070143;28;20119;-68
2021/04/12 10:04:39;;;;;;;9.90;2.95;;;10.00;99.90;;;;;;5067672;28;20032;-68
2021/04/12 10:07:13;;;;;;;4.90;3.08;;;10.20;99.90;;;;;;5073328;28;20040;-68
2021/04/12 10:09:57;;;;;;;6.75;2.92;;;10.60;99.90;;;;;;5073772;28;20155;-68
2021/04/12 10:12:53;;;;;;;7.07;2.92;;;10.80;99.90;;;;;;5063262;28;20032;-68
2021/04/12 10:15:22;;;;;;;7.25;2.95;;;11.00;99.90;;;;;;5070224;28;20037;-68
2021/04/12 10:17:52;;;;;;;6.05;2.72;;;10.90;99.90;;;;;;5072087;28;20028;-68
2021/04/12 10:20:32;;;;;;;5.35;2.83;;;10.80;99.90;;;;;;5077548;28;20027;-68
2021/04/12 10:23:12;;;;;;;5.88;2.78;;;10.70;99.90;;;;;;5069897;28;20052;-68
2021/04/12 10:26:06;;;;;;;3.72;2.53;;;10.50;99.90;;;;;;5073048;28;20029;-68
2021/04/12 10:28:50;;;;;;;3.35;2.28;;;10.50;99.90;;;;;;5068337;28;20036;-68
2021/04/12 10:31:30;;;;;;;2.38;1.00;;;10.10;99.90;;;;;;5072895;28;20366;-68
2021/04/12 10:34:04;;;;;;;1.60;0.80;;;9.20;99.90;;;;;;5075574;28;20460;-68
2021/04/12 10:37:11;;;;;;;2.05;1.08;;;8.60;99.90;;;;;;5073754;28;20023;-69
2021/04/12 10:40:22;;;;;;;2.00;1.00;;;8.00;99.90;;;;;;5054573;28;20126;-68
2021/04/12 10:43:17;;;;;;;3.05;1.20;;;7.70;99.90;;;;;;5069370;28;20103;-68
2021/04/12 10:46:10;;;;;;;2.05;1.13;;;7.10;99.90;;;;;;5065316;28;20032;-68
2021/04/12 10:48:52;;;;;;;;;;;6.70;99.90;;;;;;5077170;28;20182;-70
2021/04/12 10:51:56;;;;;;;1.30;1.20;;;6.40;99.90;;;;;;5072460;28;19939;-69
2021/04/12 10:54:36;;;;;;;;;;;6.20;99.90;;;;;;5073266;28;20043;-70
2021/04/12 10:57:27;;;;;;;3.15;1.33;;;6.10;99.90;;;;;;5075511;28;20335;-69
2021/04/12 10:59:55;;;;;;;1.60;1.50;;;6.00;99.90;;;;;;5079320;28;20080;-69
2021/04/12 11:02:25;;;;;;;1.27;1.17;;;5.80;99.90;;;;;;5080653;28;20123;-69
2021/04/12 11:04:57;;;;;;;2.05;1.45;;;5.80;99.90;;;;;;5067999;28;20090;-69
2021/04/12 11:07:43;;;;;;;2.05;1.58;;;5.80;99.90;;;;;;5076317;28;20024;-69
2021/04/12 11:10:25;;;;;;;3.40;1.75;;;5.70;99.90;;;;;;5062258;28;20400;-69
2021/04/12 11:13:02;;;;;;;3.03;2.30;;;5.80;99.90;;;;;;5075239;28;20460;-69
2021/04/12 11:15:52;;;;;;;2.53;1.83;;;5.80;99.90;;;;;;5067245;28;20056;-70
2021/04/12 11:18:28;;;;;;;5.63;1.90;;;5.80;99.90;;;;;;5070384;28;20027;-70
2021/04/12 11:21:07;;;;;;;2.08;1.88;;;5.80;99.90;;;;;;5074087;28;20120;-70
2021/04/12 11:23:58;;;;;;;4.60;1.70;;;5.90;99.90;;;;;;5068295;28;20103;-67
2021/04/12 11:27:05;;;;;;;2.22;1.83;;;5.80;99.90;;;;;;5073134;28;20477;-70
2021/04/12 11:29:35;;;;;;;3.10;2.00;;;5.90;99.90;;;;;;5064135;28;20028;-68
2021/04/12 11:32:06;;;;;;;3.50;2.22;;;5.90;99.90;;;;;;5071506;28;20020;-68
2021/04/12 11:34:54;;;;;;;2.30;1.80;;;6.10;99.90;;;;;;5072747;28;20025;-69
2021/04/12 11:37:27;;;;;;;2.97;2.25;;;6.30;99.90;;;;;;5069642;28;20028;-69
2021/04/12 11:40:03;;;;;;;2.88;2.00;;;6.70;99.90;;;;;;5069124;28;20085;-68
2021/04/12 11:42:36;;;;;;;2.42;2.20;;;6.90;99.90;;;;;;5058055;28;20033;-68
2021/04/12 11:45:14;;;;;;;5.10;2.42;;;7.20;99.90;;;;;;5069395;28;20081;-68
2021/04/12 11:47:58;;;;;;;2.72;2.08;;;7.50;99.90;;;;;;5070648;28;20040;-69
2021/04/12 11:50:45;;;;;;;2.72;2.53;;;7.50;99.90;;;;;;5066880;28;20021;-68
2021/04/12 11:53:38;;;;;;;2.72;2.13;;;7.40;99.90;;;;;;5061689;28;20024;-69
2021/04/12 11:56:16;;;;;;;2.35;2.15;;;7.50;99.90;;;;;;5072169;28;20050;-68
2021/04/12 11:58:47;;;;;;;3.92;3.35;;;7.50;99.90;;;;;;5075326;28;20029;-69
2021/04/12 12:01:52;;;;;;;2.83;2.20;;;7.70;99.90;;;;;;5074997;28;20485;-69
2021/04/12 12:04:41;;;;;;;2.63;2.42;;;7.80;99.90;;;;;;5070314;28;20035;-69
2021/04/12 12:07:32;;;;;;;8.27;2.60;;;8.00;99.90;;;;;;5071461;28;20094;-69
2021/04/12 12:10:19;;;;;;;4.32;2.50;;;8.00;99.90;;;;;;5067947;28;20032;-69
2021/04/12 12:13:06;;;;;;;3.55;1.90;;;8.10;99.90;;;;;;5071549;28;20033;-69
2021/04/12 12:15:43;;;;;;;2.67;2.20;;;8.00;99.90;;;;;;5072101;28;20029;-69
2021/04/12 12:18:23;;;;;;;3.60;3.17;;;8.20;99.90;;;;;;5068616;28;20518;-69
2021/04/12 12:21:03;;;;;;;6.13;3.10;;;8.40;99.90;;;;;;5067503;28;20027;-69
2021/04/12 12:23:49;;;;;;;2.70;2.15;;;8.60;99.90;;;;;;5065436;28;20396;-69
2021/04/12 12:26:30;;;;;;;3.67;2.90;;;8.80;99.90;;;;;;5073309;28;20357;-69
2021/04/12 12:29:16;;;;;;;2.53;2.33;;;8.80;99.90;;;;;;5069931;28;20041;-69
2021/04/12 12:32:11;;;;;;;4.78;2.42;;;8.80;99.90;;;;;;5075817;28;20027;-69
2021/04/12 12:34:47;;;;;;;3.25;2.53;;;8.70;99.90;;;;;;5069006;28;20458;-69
2021/04/12 12:37:31;;;;;;;5.20;3.30;;;8.40;99.90;;;;;;5065614;28;20169;-69
2021/04/12 12:39:58;;;;;;;5.43;3.13;;;8.40;99.90;;;;;;5070841;28;21070;-69
2021/04/12 12:42:31;;;;;;;5.63;2.75;;;8.50;99.90;;;;;;5075531;28;20030;-69
2021/04/12 12:45:05;;;;;;;5.63;2.50;;;8.80;99.90;;;;;;5076292;28;20025;-69
2021/04/12 12:47:33;;;;;;;3.50;2.63;;;8.90;99.90;;;;;;5067206;28;20028;-69
2021/04/12 12:50:03;;;;;;;3.10;2.33;;;9.10;99.90;;;;;;5066723;28;20044;-69
2021/04/12 12:52:33;;;;;;;3.72;2.83;;;9.10;99.90;;;;;;5075629;28;20415;-69
2021/04/12 12:55:03;;;;;;;3.60;2.60;;;9.10;99.90;;;;;;5072665;28;20043;-68
2021/04/12 12:57:35;;;;;;;3.08;2.78;;;8.90;99.90;;;;;;5076835;28;20034;-69
2021/04/12 13:00:12;;;;;;;4.00;2.78;;;8.70;99.90;;;;;;5077906;28;20098;-69
2021/04/12 13:02:40;;;;;;;2.55;2.35;;;8.60;99.90;;;;;;5069532;28;20476;-68
2021/04/12 13:05:21;;;;;;;2.97;2.33;;;8.60;99.90;;;;;;5070883;28;20028;-68
2021/04/12 13:07:49;;;;;;;4.30;3.05;;;8.80;99.90;;;;;;5072353;28;20032;-69
2021/04/12 13:10:18;;;;;;;3.53;2.50;;;8.90;99.90;;;;;;5072034;28;20066;-69
2021/04/12 13:12:48;;;;;;;3.47;2.47;;;8.90;99.90;;;;;;5064989;28;20096;-69
2021/04/12 13:15:14;;;;;;;4.72;3.10;;;8.90;99.90;;;;;;5072497;28;20036;-70
2021/04/12 13:17:40;;;;;;;3.95;3.25;;;8.80;99.90;;;;;;5072682;28;21668;-70
2021/04/12 13:20:15;;;;;;;3.72;3.30;;;8.70;99.90;;;;;;5079467;28;20008;-69
2021/04/12 13:22:43;;;;;;;3.08;2.88;;;8.90;99.90;;;;;;5070076;28;20448;-69
2021/04/12 13:25:17;;;;;;;6.13;4.03;;;9.10;99.90;;;;;;5066942;28;20082;-69
2021/04/12 13:27:48;;;;;;;4.60;3.28;;;9.20;99.90;;;;;;5072748;28;20477;-69
2021/04/12 13:30:21;;;;;;;5.38;3.47;;;9.40;99.90;;;;;;5060096;28;20039;-69
2021/04/12 13:33:10;;;;;;;4.28;3.25;;;9.40;99.90;;;;;;5071679;28;20024;-68
2021/04/12 13:35:40;;;;;;;5.30;3.17;;;9.40;99.90;;;;;;5072240;28;20028;-69
2021/04/12 13:38:17;;;;;;;4.30;3.90;;;9.50;99.90;;;;;;5071406;28;20028;-69
2021/04/12 13:40:49;;;;;;;7.88;4.10;;;9.50;99.90;;;;;;5071206;28;20032;-69
2021/04/12 13:43:18;;;;;;;4.05;3.65;;;9.40;99.90;;;;;;5062189;28;20028;-69
2021/04/12 13:45:49;;;;;;;4.35;4.00;;;9.60;99.90;;;;;;5063566;28;20031;-69
2021/04/12 13:48:18;;;;;;;5.68;3.92;;;9.40;99.90;;;;;;5068738;28;20068;-68
2021/04/12 13:51:04;;;;;;;4.43;3.63;;;9.30;99.90;;;;;;5069003;28;20020;-69
2021/04/12 13:54:01;;;;;;;5.45;3.70;;;9.30;99.90;;;;;;5070075;28;20016;-69
2021/04/12 13:56:36;;;;;;;6.38;4.05;;;9.10;99.90;;;;;;5067591;28;20082;-69
2021/04/12 13:59:24;;;;;;;5.38;3.70;;;9.20;99.90;;;;;;5067592;28;20032;-69
2021/04/12 14:02:04;;;;;;;6.85;4.45;;;9.30;99.90;;;;;;5071886;28;20029;-69
2021/04/12 14:04:40;;;;;;;4.45;3.55;;;9.50;99.90;;;;;;5076078;28;20477;-69
2021/04/12 14:07:11;;;;;;;6.10;3.60;;;9.60;99.90;;;;;;5067996;28;20024;-70
2021/04/12 14:09:54;;;;;;;3.47;2.88;;;9.70;99.90;;;;;;5071271;28;20024;-70
2021/04/12 14:12:29;;;;;;;4.05;3.03;;;9.80;99.90;;;;;;5076296;28;20383;-68
2021/04/12 14:15:11;;;;;;;4.72;2.60;;;9.90;99.90;;;;;;5066205;28;20032;-70
2021/04/12 14:17:45;;;;;;;4.55;2.30;;;10.00;99.90;;;;;;5074624;28;20031;-68
2021/04/12 14:20:25;;;;;;;3.42;2.20;;;10.10;99.90;;;;;;5078357;28;20024;-68
2021/04/12 14:22:53;;;;;;;4.80;2.28;;;9.90;99.90;;;;;;5076169;28;20464;-68
2021/04/12 14:25:19;;;;;;;3.30;2.97;;;9.90;99.90;;;;;;5074511;28;20027;-71
2021/04/12 14:27:45;;;;;;;3.60;3.30;;;9.80;99.90;;;;;;5076137;28;20384;-68